createdAt,value
2018-11-29T00:00:18.622Z,15.97
2018-11-29T00:02:46.943Z,16.77
2018-11-29T00:05:15.308Z,18.50
2018-11-29T00:07:43.723Z,16.67
2018-11-29T00:10:12.155Z,16.77
2018-11-29T00:12:40.568Z,17.03
2018-11-29T00:15:11.693Z,17.20
2018-11-29T00:17:40.048Z,18.37
2018-11-29T00:20:12.527Z,17.60
2018-11-29T00:22:41.071Z,15.97
2018-11-29T00:25:10.412Z,17.43
2018-11-29T00:27:38.861Z,18.37
2018-11-29T00:30:15.768Z,18.67
2018-11-29T00:32:44.126Z,17.57
2018-11-29T00:35:13.247Z,16.90
2018-11-29T00:37:41.610Z,17.90
2018-11-29T00:40:14.278Z,17.47
2018-11-29T00:42:42.642Z,19.30
2018-11-29T00:45:13.826Z,19.43
2018-11-29T00:47:42.272Z,19.00
2018-11-29T00:50:12.238Z,19.17
2018-11-29T00:52:41.282Z,18.20
2018-11-29T00:55:10.734Z,17.23
2018-11-29T00:57:39.344Z,19.03
2018-11-29T01:00:28.097Z,17.77
2018-11-29T01:02:56.444Z,17.73
2018-11-29T01:05:24.897Z,18.57
2018-11-29T01:07:53.225Z,18.43
2018-11-29T01:10:21.591Z,17.97
2018-11-29T01:12:49.915Z,18.40
2018-11-29T01:15:19.303Z,18.60
2018-11-29T01:17:48.387Z,18.00
2018-11-29T01:20:17.666Z,18.97
2018-11-29T01:22:45.981Z,18.73
2018-11-29T01:25:14.948Z,18.27
2018-11-29T01:27:44.328Z,19.10
2018-11-29T01:30:13.441Z,17.93
2018-11-29T01:32:41.797Z,18.80
2018-11-29T01:35:11.053Z,18.60
2018-11-29T01:37:39.369Z,18.20
2018-11-29T01:40:16.762Z,18.97
2018-11-29T01:42:46.269Z,18.17
2018-11-29T01:45:14.626Z,18.23
2018-11-29T01:47:43.010Z,17.50
2018-11-29T01:50:11.362Z,17.07
2018-11-29T01:52:39.780Z,19.40
2018-11-29T01:55:09.085Z,18.97
2018-11-29T01:57:37.376Z,18.83
2018-11-29T02:00:09.033Z,21.10
2018-11-29T02:02:37.408Z,20.20
2018-11-29T02:05:07.399Z,19.10
2018-11-29T02:07:37.030Z,18.40
2018-11-29T02:10:12.740Z,18.43
2018-11-29T02:12:41.091Z,19.00
2018-11-29T02:15:09.548Z,17.10
2018-11-29T02:17:37.901Z,19.50
2018-11-29T02:20:09.156Z,19.17
2018-11-29T02:22:37.517Z,20.43
2018-11-29T02:25:06.649Z,20.00
2018-11-29T02:27:35.437Z,19.50
2018-11-29T02:30:04.321Z,20.07
2018-11-29T02:32:32.713Z,19.63
2018-11-29T02:35:00.974Z,18.60
2018-11-29T02:37:29.242Z,20.63
2018-11-29T02:39:57.501Z,20.37
2018-11-29T02:42:25.788Z,20.27
2018-11-29T02:44:54.069Z,19.60
2018-11-29T02:47:22.334Z,20.37
2018-11-29T02:49:50.647Z,20.40
2018-11-29T02:52:18.919Z,18.37
2018-11-29T02:54:47.344Z,20.40
2018-11-29T02:57:15.610Z,21.00
2018-11-29T02:59:43.878Z,20.43
2018-11-29T03:02:12.218Z,19.30
2018-11-29T03:04:40.531Z,20.87
2018-11-29T03:07:08.811Z,21.10
2018-11-29T03:09:37.173Z,20.77
2018-11-29T03:12:05.921Z,22.60
2018-11-29T03:14:34.292Z,20.70
2018-11-29T03:17:02.637Z,21.50
2018-11-29T03:19:30.950Z,21.70
2018-11-29T03:21:59.261Z,19.93
2018-11-29T03:24:27.561Z,22.53
2018-11-29T03:26:55.898Z,19.53
2018-11-29T03:29:24.182Z,21.10
2018-11-29T03:31:52.836Z,21.10
2018-11-29T03:34:21.121Z,19.87
2018-11-29T03:36:49.391Z,21.67
2018-11-29T03:39:18.650Z,22.03
2018-11-29T03:41:46.962Z,22.13
2018-11-29T03:44:15.214Z,22.13
2018-11-29T03:46:43.517Z,22.13
2018-11-29T03:49:11.825Z,20.97
2018-11-29T03:51:40.129Z,20.50
2018-11-29T03:54:08.373Z,22.20
2018-11-29T03:56:36.698Z,20.60
2018-11-29T03:59:05.079Z,23.13
2018-11-29T04:01:33.331Z,21.30
2018-11-29T04:04:01.661Z,22.87
2018-11-29T04:06:29.988Z,22.10
2018-11-29T04:08:58.269Z,22.60
2018-11-29T04:11:26.616Z,20.60
2018-11-29T04:13:54.914Z,20.73
2018-11-29T04:16:23.174Z,23.03
2018-11-29T04:18:52.038Z,20.80
2018-11-29T04:21:20.321Z,18.97
2018-11-29T04:23:48.599Z,21.43
2018-11-29T04:26:16.974Z,20.50
2018-11-29T04:28:45.342Z,21.07
2018-11-29T04:31:13.650Z,21.17
2018-11-29T04:33:41.951Z,21.97
2018-11-29T04:36:10.179Z,21.60
2018-11-29T04:38:38.991Z,21.17
2018-11-29T04:41:07.303Z,20.73
2018-11-29T04:43:35.596Z,20.17
2018-11-29T04:47:14.153Z,22.00
2018-11-29T04:49:43.041Z,20.20
2018-11-29T04:52:11.688Z,21.30
2018-11-29T04:54:40.013Z,19.73
2018-11-29T04:57:08.291Z,19.57
2018-11-29T04:59:36.521Z,21.50
2018-11-29T05:02:05.186Z,20.83
2018-11-29T05:04:33.494Z,20.53
2018-11-29T05:07:01.792Z,22.00
2018-11-29T05:09:30.141Z,20.37
2018-11-29T05:11:58.414Z,21.83
2018-11-29T05:14:26.712Z,20.60
2018-11-29T05:16:55.020Z,22.60
2018-11-29T05:19:23.309Z,21.70
2018-11-29T05:21:51.674Z,22.60
2018-11-29T05:24:19.968Z,21.80
2018-11-29T05:26:48.294Z,23.10
2018-11-29T05:29:16.676Z,20.83
2018-11-29T05:31:44.973Z,23.70
2018-11-29T05:34:13.280Z,22.00
2018-11-29T05:36:41.609Z,23.53
2018-11-29T05:39:09.983Z,22.00
2018-11-29T05:41:38.290Z,19.93
2018-11-29T05:44:06.672Z,22.30
2018-11-29T05:46:35.165Z,21.50
2018-11-29T05:49:03.621Z,23.70
2018-11-29T05:51:32.033Z,21.23
2018-11-29T05:54:00.393Z,22.60
2018-11-29T05:56:28.658Z,21.37
2018-11-29T05:58:57.021Z,23.97
2018-11-29T06:01:31.805Z,22.07
2018-11-29T06:04:00.118Z,22.43
2018-11-29T06:06:28.441Z,22.47
2018-11-29T06:08:56.746Z,22.53
2018-11-29T06:11:25.086Z,21.40
2018-11-29T06:13:53.416Z,21.10
2018-11-29T06:16:21.768Z,21.20
2018-11-29T06:18:50.097Z,22.23
2018-11-29T06:21:18.371Z,21.90
2018-11-29T06:23:46.669Z,22.60
2018-11-29T06:26:14.989Z,20.90
2018-11-29T06:28:43.250Z,20.80
2018-11-29T06:31:11.590Z,21.80
2018-11-29T06:33:39.960Z,21.97
2018-11-29T06:36:08.267Z,20.77
2018-11-29T06:38:36.612Z,21.40
2018-11-29T06:41:05.129Z,22.00
2018-11-29T06:43:33.554Z,21.87
2018-11-29T06:46:01.931Z,20.80
2018-11-29T06:48:30.320Z,21.50
2018-11-29T06:50:58.634Z,22.23
2018-11-29T06:53:32.217Z,21.73
2018-11-29T06:56:00.592Z,24.30
2018-11-29T06:58:28.870Z,22.53
2018-11-29T07:00:57.173Z,22.23
2018-11-29T07:03:28.844Z,22.47
2018-11-29T07:05:53.983Z,21.90
2018-11-29T07:08:22.418Z,23.47
2018-11-29T07:10:51.095Z,21.33
2018-11-29T07:13:19.619Z,21.10
2018-11-29T07:15:48.778Z,20.00
2018-11-29T07:18:17.028Z,21.93
2018-11-29T07:20:55.275Z,22.70
2018-11-29T07:23:23.549Z,21.03
2018-11-29T07:25:51.830Z,24.47
2018-11-29T07:28:20.150Z,22.07
2018-11-29T07:30:48.404Z,21.90
2018-11-29T07:33:16.722Z,22.43
2018-11-29T07:35:45.037Z,20.87
2018-11-29T07:38:13.437Z,22.80
2018-11-29T07:40:41.740Z,22.53
2018-11-29T07:43:10.113Z,21.87
2018-11-29T07:45:38.450Z,23.60
2018-11-29T07:48:06.773Z,21.50
2018-11-29T07:50:35.093Z,23.80
2018-11-29T07:53:03.427Z,23.47
2018-11-29T07:55:31.736Z,22.93
2018-11-29T07:58:00.023Z,22.67
2018-11-29T08:00:28.363Z,22.97
2018-11-29T08:02:56.644Z,23.17
2018-11-29T08:05:24.986Z,21.67
2018-11-29T08:07:56.263Z,23.33
2018-11-29T08:10:24.566Z,22.07
2018-11-29T08:12:52.882Z,21.77
2018-11-29T08:15:21.895Z,22.50
2018-11-29T08:17:50.232Z,23.27
2018-11-29T08:20:20.309Z,22.17
2018-11-29T08:22:48.620Z,24.20
2018-11-29T08:25:17.015Z,22.77
2018-11-29T08:27:45.318Z,23.87
2018-11-29T08:30:14.522Z,22.77
2018-11-29T08:32:42.944Z,22.20
2018-11-29T08:35:12.215Z,24.77
2018-11-29T08:37:41.488Z,23.90
2018-11-29T08:40:14.262Z,23.63
2018-11-29T08:42:42.606Z,22.77
2018-11-29T08:45:11.506Z,22.90
2018-11-29T08:47:39.957Z,25.67
2018-11-29T08:50:10.673Z,24.10
2018-11-29T08:52:39.249Z,24.13
2018-11-29T08:55:10.850Z,22.40
2018-11-29T08:57:39.143Z,22.73
2018-11-29T09:00:11.004Z,23.07
2018-11-29T09:02:39.385Z,23.70
2018-11-29T09:05:08.625Z,22.10
2018-11-29T09:07:36.960Z,22.00
2018-11-29T09:10:07.313Z,22.47
2018-11-29T09:12:35.646Z,22.87
2018-11-29T09:15:04.077Z,24.20
2018-11-29T09:17:32.382Z,21.83
2018-11-29T09:20:00.716Z,22.40
2018-11-29T09:22:29.264Z,22.80
2018-11-29T09:24:57.653Z,22.07
2018-11-29T09:27:26.001Z,21.67
2018-11-29T09:29:54.350Z,22.70
2018-11-29T09:32:22.735Z,21.37
2018-11-29T09:34:51.007Z,22.10
2018-11-29T09:37:19.354Z,24.10
2018-11-29T09:39:47.733Z,20.77
2018-11-29T09:42:16.130Z,21.27
2018-11-29T09:44:44.490Z,22.30
2018-11-29T09:47:12.836Z,22.67
2018-11-29T09:49:41.224Z,22.70
2018-11-29T09:52:09.533Z,22.63
2018-11-29T09:54:37.911Z,23.00
2018-11-29T09:57:06.445Z,23.20
2018-11-29T09:59:34.836Z,21.67
2018-11-29T10:02:03.216Z,22.50
2018-11-29T10:04:31.549Z,23.10
2018-11-29T10:06:59.882Z,23.87
2018-11-29T10:09:28.269Z,23.73
2018-11-29T10:11:56.571Z,21.23
2018-11-29T10:14:24.905Z,23.23
2018-11-29T10:16:53.270Z,22.83
2018-11-29T10:19:21.586Z,23.33
2018-11-29T10:21:49.857Z,23.60
2018-11-29T10:24:18.294Z,24.23
2018-11-29T10:26:46.680Z,22.70
2018-11-29T10:29:15.042Z,22.03
2018-11-29T10:31:43.364Z,24.03
2018-11-29T10:34:11.728Z,21.97
2018-11-29T10:36:40.078Z,21.50
2018-11-29T10:39:09.049Z,24.23
2018-11-29T10:41:37.515Z,23.00
2018-11-29T10:44:06.154Z,22.10
2018-11-29T10:46:34.566Z,20.97
2018-11-29T10:49:02.945Z,21.50
2018-11-29T10:51:31.280Z,21.83
2018-11-29T10:53:59.605Z,22.47
2018-11-29T10:56:27.985Z,24.03
2018-11-29T10:58:56.319Z,21.70
2018-11-29T11:01:29.981Z,22.07
2018-11-29T11:03:58.332Z,23.53
2018-11-29T11:06:26.633Z,21.10
2018-11-29T11:08:55.149Z,22.17
2018-11-29T11:11:23.799Z,22.63
2018-11-29T11:13:52.139Z,23.37
2018-11-29T11:16:20.502Z,21.07
2018-11-29T11:18:48.813Z,24.07
2018-11-29T11:21:17.187Z,25.10
2018-11-29T11:23:45.643Z,23.97
2018-11-29T11:26:13.957Z,21.57
2018-11-29T11:28:42.384Z,21.60
2018-11-29T11:31:10.729Z,22.80
2018-11-29T11:33:39.072Z,23.00
2018-11-29T11:36:07.470Z,22.67
2018-11-29T11:38:35.827Z,22.30
2018-11-29T11:41:04.172Z,22.63
2018-11-29T11:43:32.499Z,23.27
2018-11-29T11:46:00.862Z,21.80
2018-11-29T11:48:29.206Z,22.13
2018-11-29T11:50:57.634Z,22.47
2018-11-29T11:53:25.946Z,23.73
2018-11-29T11:55:54.445Z,22.33
2018-11-29T11:58:22.720Z,22.83
2018-11-29T12:00:51.069Z,21.80
2018-11-29T12:03:19.491Z,24.20
2018-11-29T12:05:47.947Z,20.93
2018-11-29T12:08:16.280Z,21.10
2018-11-29T12:13:36.127Z,20.83
2018-11-29T12:16:04.585Z,21.90
2018-11-29T12:18:33.074Z,22.17
2018-11-29T12:21:01.601Z,22.03
2018-11-29T12:23:29.948Z,22.13
2018-11-29T12:25:58.356Z,22.23
2018-11-29T12:28:26.901Z,20.97
2018-11-29T12:30:55.273Z,20.73
2018-11-29T12:33:23.694Z,22.07
2018-11-29T12:35:52.237Z,21.67
2018-11-29T12:38:20.586Z,22.37
2018-11-29T12:40:49.055Z,22.23
2018-11-29T12:43:18.090Z,22.37
2018-11-29T12:45:46.474Z,23.50
2018-11-29T12:48:14.824Z,21.83
2018-11-29T12:50:43.139Z,22.83
2018-11-29T12:53:11.734Z,21.10
2018-11-29T12:55:41.485Z,21.43
2018-11-29T12:58:09.864Z,21.30
2018-11-29T13:00:38.330Z,21.80
2018-11-29T13:05:36.695Z,21.00
2018-11-29T13:08:05.673Z,23.03
2018-11-29T13:10:34.190Z,21.97
2018-11-29T13:13:02.649Z,23.27
2018-11-29T13:15:33.172Z,20.73
2018-11-29T13:18:03.101Z,21.80
2018-11-29T13:20:32.584Z,22.00
2018-11-29T13:23:00.015Z,20.50
2018-11-29T13:25:28.986Z,21.80
2018-11-29T13:27:57.371Z,22.30
2018-11-29T13:30:25.683Z,22.20
2018-11-29T13:32:56.286Z,21.80
2018-11-29T13:35:32.877Z,20.57
2018-11-29T13:38:14.118Z,21.53
2018-11-29T13:40:44.689Z,20.10
2018-11-29T13:43:13.015Z,21.33
2018-11-29T13:45:41.343Z,20.30
2018-11-29T13:48:10.459Z,19.70
2018-11-29T13:50:39.566Z,21.63
2018-11-29T13:53:08.656Z,22.17
2018-11-29T13:55:37.105Z,23.03
2018-11-29T13:58:05.966Z,18.70
2018-11-29T14:00:34.450Z,19.73
2018-11-29T14:03:08.169Z,20.67
2018-11-29T14:05:36.892Z,19.77
2018-11-29T14:08:06.089Z,20.30
2018-11-29T14:10:34.762Z,20.90
2018-11-29T14:13:03.261Z,21.00
2018-11-29T14:15:31.693Z,22.13
2018-11-29T14:18:00.079Z,20.93
2018-11-29T14:20:28.541Z,25.57
2018-11-29T14:22:56.917Z,22.47
2018-11-29T14:25:25.230Z,20.50
2018-11-29T14:27:55.607Z,20.90
2018-11-29T14:30:25.715Z,18.80
2018-11-29T14:32:55.098Z,19.67
2018-11-29T14:35:23.454Z,19.03
2018-11-29T14:37:51.821Z,18.63
2018-11-29T14:40:21.338Z,20.10
2018-11-29T14:42:49.717Z,20.00
2018-11-29T14:45:19.141Z,21.03
2018-11-29T14:47:47.486Z,18.77
2018-11-29T14:50:26.720Z,19.17
2018-11-29T14:52:55.107Z,17.07
2018-11-29T14:55:23.424Z,19.10
2018-11-29T14:57:51.814Z,20.17
2018-11-29T15:00:20.246Z,19.87
2018-11-29T15:02:49.068Z,21.87
2018-11-29T15:05:25.116Z,17.93
2018-11-29T15:07:53.518Z,20.80
2018-11-29T15:10:21.897Z,19.00
2018-11-29T15:12:50.550Z,19.70
2018-11-29T15:15:18.890Z,18.90
2018-11-29T15:17:48.039Z,20.77
2018-11-29T15:20:18.823Z,18.77
2018-11-29T15:22:47.417Z,20.60
2018-11-29T15:25:15.744Z,19.40
2018-11-29T15:27:44.118Z,21.70
2018-11-29T15:30:13.903Z,21.83
2018-11-29T15:32:42.274Z,20.30
2018-11-29T15:35:10.630Z,21.40
2018-11-29T15:37:39.120Z,19.13
2018-11-29T15:40:10.780Z,20.57
2018-11-29T15:42:39.161Z,19.43
2018-11-29T15:45:10.286Z,20.20
2018-11-29T15:47:38.574Z,18.87
2018-11-29T15:50:10.346Z,19.70
2018-11-29T15:52:38.671Z,18.67
2018-11-29T15:55:10.715Z,17.90
2018-11-29T15:57:39.029Z,18.40
2018-11-29T16:00:19.181Z,19.90
2018-11-29T16:02:48.205Z,19.70
2018-11-29T16:05:16.501Z,18.10
2018-11-29T16:07:44.846Z,19.60
2018-11-29T16:10:14.135Z,19.83
2018-11-29T16:12:42.455Z,18.90
2018-11-29T16:15:12.343Z,18.23
2018-11-29T16:17:40.670Z,19.80
2018-11-29T16:20:29.194Z,20.50
2018-11-29T16:22:57.570Z,19.20
2018-11-29T16:25:25.918Z,20.50
2018-11-29T16:27:54.253Z,20.83
2018-11-29T16:30:26.892Z,20.00
2018-11-29T16:32:56.100Z,20.00
2018-11-29T16:35:24.447Z,19.70
2018-11-29T16:37:52.846Z,19.90
2018-11-29T16:40:21.219Z,18.70
2018-11-29T16:42:54.429Z,19.90
2018-11-29T16:45:27.073Z,18.77
2018-11-29T16:47:55.474Z,20.37
2018-11-29T16:50:23.818Z,19.17
2018-11-29T16:52:52.230Z,19.50
2018-11-29T16:55:20.534Z,19.00
2018-11-29T16:57:52.782Z,20.67
2018-11-29T17:00:21.751Z,25.43
2018-11-29T17:02:50.150Z,20.50
2018-11-29T17:05:18.482Z,18.20
2018-11-29T17:07:47.001Z,19.17
2018-11-29T17:10:16.436Z,18.17
2018-11-29T17:12:46.469Z,19.23
2018-11-29T17:15:16.050Z,17.17
2018-11-29T17:17:44.476Z,16.93
2018-11-29T17:20:14.044Z,17.13
2018-11-29T17:22:42.382Z,16.57
2018-11-29T17:25:11.785Z,17.60
2018-11-29T17:27:40.176Z,17.10
2018-11-29T17:30:12.313Z,15.67
2018-11-29T17:32:40.650Z,16.50
2018-11-29T17:35:09.043Z,16.70
2018-11-29T17:37:37.398Z,16.73
2018-11-29T17:40:12.166Z,16.20
2018-11-29T17:42:40.567Z,16.17
2018-11-29T17:45:14.186Z,18.03
2018-11-29T17:47:43.432Z,16.50
2018-11-29T17:50:13.557Z,14.57
2018-11-29T17:52:41.858Z,16.83
2018-11-29T17:55:10.219Z,16.47
2018-11-29T17:57:38.590Z,15.53
2018-11-29T18:00:16.357Z,15.50
2018-11-29T18:02:44.818Z,17.13
2018-11-29T18:05:13.187Z,14.67
2018-11-29T18:07:41.531Z,16.00
2018-11-29T18:10:14.161Z,16.50
2018-11-29T18:12:42.574Z,15.47
2018-11-29T18:15:13.733Z,15.00
2018-11-29T18:17:42.137Z,15.50
2018-11-29T18:20:11.543Z,15.37
2018-11-29T18:22:39.901Z,16.47
2018-11-29T18:25:11.379Z,15.60
2018-11-29T18:27:40.162Z,16.10
2018-11-29T18:30:13.566Z,15.40
2018-11-29T18:32:41.970Z,14.80
2018-11-29T18:35:11.198Z,14.47
2018-11-29T18:37:39.671Z,15.23
2018-11-29T18:40:12.382Z,15.73
2018-11-29T18:42:40.752Z,14.80
2018-11-29T18:45:11.730Z,15.47
2018-11-29T18:47:40.427Z,15.87
2018-11-29T18:50:13.861Z,16.30
2018-11-29T18:52:45.190Z,16.90
2018-11-29T18:55:13.650Z,17.60
2018-11-29T18:57:42.021Z,16.43
2018-11-29T19:00:13.698Z,20.20
2018-11-29T19:02:42.278Z,18.20
2018-11-29T19:05:10.685Z,18.03
2018-11-29T19:07:39.116Z,17.10
2018-11-29T19:10:11.389Z,17.13
2018-11-29T19:12:41.121Z,16.50
2018-11-29T19:15:11.086Z,16.50
2018-11-29T19:17:40.032Z,16.33
2018-11-29T19:20:11.434Z,18.70
2018-11-29T19:22:39.841Z,17.77
2018-11-29T19:25:14.269Z,15.83
2018-11-29T19:27:42.671Z,15.87
2018-11-29T19:30:32.299Z,16.40
2018-11-29T19:33:19.821Z,16.77
2018-11-29T19:35:49.240Z,16.47
2018-11-29T19:38:17.665Z,16.33
2018-11-29T19:40:46.067Z,15.57
2018-11-29T19:43:14.385Z,16.50
2018-11-29T19:45:42.738Z,17.30
2018-11-29T19:48:11.702Z,16.53
2018-11-29T19:50:40.069Z,16.67
2018-11-29T19:53:15.092Z,15.80
2018-11-29T19:55:43.549Z,15.93
2018-11-29T19:58:11.853Z,16.70
2018-11-29T20:00:40.330Z,15.70
2018-11-29T20:03:08.786Z,15.50
2018-11-29T20:05:37.277Z,16.17
2018-11-29T20:08:07.229Z,15.40
2018-11-29T20:10:36.043Z,15.93
2018-11-29T20:13:07.311Z,15.60
2018-11-29T20:15:37.336Z,17.33
2018-11-29T20:18:05.959Z,15.90
2018-11-29T20:20:34.254Z,16.10
2018-11-29T20:23:02.628Z,15.40
2018-11-29T20:25:30.979Z,15.03
2018-11-29T20:27:59.348Z,16.30
2018-11-29T20:30:27.708Z,15.23
2018-11-29T20:32:56.196Z,15.37
2018-11-29T20:35:24.656Z,13.93
2018-11-29T20:37:53.927Z,13.63
2018-11-29T20:40:24.566Z,16.03
2018-11-29T20:42:54.353Z,15.30
2018-11-29T20:45:25.253Z,16.50
2018-11-29T20:47:53.742Z,14.53
2018-11-29T20:50:23.367Z,15.40
2018-11-29T20:52:52.802Z,14.80
2018-11-29T20:55:24.639Z,15.03
2018-11-29T20:57:53.127Z,15.40
2018-11-29T21:00:21.592Z,14.83
2018-11-29T21:02:50.029Z,16.20
2018-11-29T21:05:19.484Z,16.50
2018-11-29T21:07:49.298Z,16.33
2018-11-29T21:10:22.521Z,14.87
2018-11-29T21:12:50.919Z,17.00
2018-11-29T21:15:19.396Z,14.87
2018-11-29T21:17:47.790Z,16.20
2018-11-29T21:20:18.137Z,14.80
2018-11-29T21:22:47.540Z,16.80
2018-11-29T21:25:17.208Z,16.37
2018-11-29T21:27:45.818Z,16.50
2018-11-29T21:30:15.027Z,19.20
2018-11-29T21:32:43.416Z,19.70
2018-11-29T21:35:14.039Z,17.53
2018-11-29T21:37:42.530Z,18.73
2018-11-29T21:40:29.978Z,17.23
2018-11-29T21:42:58.419Z,17.00
2018-11-29T21:45:26.899Z,16.53
2018-11-29T21:47:55.377Z,17.50
2018-11-29T21:50:23.710Z,17.63
2018-11-29T21:52:52.142Z,17.37
2018-11-29T21:55:20.568Z,18.10
2018-11-29T21:57:51.843Z,18.03
2018-11-29T22:00:21.524Z,16.90
2018-11-29T22:02:58.550Z,17.80
2018-11-29T22:05:26.946Z,17.80
2018-11-29T22:07:55.329Z,16.63
2018-11-29T22:10:23.666Z,16.73
2018-11-29T22:12:52.031Z,16.67
2018-11-29T22:15:20.437Z,17.50
2018-11-29T22:18:14.928Z,16.87
2018-11-29T22:20:43.338Z,15.70
2018-11-29T22:23:12.776Z,15.30
2018-11-29T22:25:41.720Z,14.80
2018-11-29T22:28:10.166Z,16.50
2018-11-29T22:30:38.507Z,18.77
2018-11-29T22:33:07.125Z,15.43
2018-11-29T22:35:35.512Z,15.30
2018-11-29T22:38:03.929Z,15.37
2018-11-29T22:40:32.254Z,16.73
2018-11-29T22:43:00.603Z,16.90
2018-11-29T22:45:29.042Z,15.93
2018-11-29T22:47:57.437Z,15.63
2018-11-29T22:50:25.805Z,15.93
2018-11-29T22:52:54.186Z,16.20
2018-11-29T22:55:22.738Z,16.40
2018-11-29T22:57:51.299Z,15.13
2018-11-29T23:00:20.454Z,14.97
2018-11-29T23:02:49.938Z,14.20
2018-11-29T23:05:18.383Z,13.90
2018-11-29T23:07:46.886Z,14.23
2018-11-29T23:10:15.295Z,13.10
2018-11-29T23:12:43.655Z,14.27
2018-11-29T23:15:12.799Z,14.07
2018-11-29T23:17:41.252Z,15.33
2018-11-29T23:20:12.552Z,13.90
2018-11-29T23:22:41.138Z,14.50
2018-11-29T23:25:11.754Z,14.00
2018-11-29T23:27:40.189Z,13.10
2018-11-29T23:30:16.934Z,14.00
2018-11-29T23:32:45.388Z,15.37
2018-11-29T23:35:14.643Z,13.97
2018-11-29T23:37:42.998Z,15.73
2018-11-29T23:40:12.522Z,14.10
2018-11-29T23:42:40.882Z,15.40
2018-11-29T23:45:10.481Z,14.27
2018-11-29T23:47:38.780Z,14.00
2018-11-29T23:50:09.215Z,14.93
2018-11-29T23:52:37.545Z,13.60
2018-11-29T23:55:07.446Z,13.57
2018-11-29T23:57:35.793Z,15.60
